Time;durP1;ratioP1;P1;durP2;ratioP2;P2;SDS_P1;SDS_P2;PMS_P1;PMS_P2;Temp;Humidity;BMP_temperature;BMP_pressure;BME280_temperature;BME280_humidity;BME280_pressure;Samples;Min_cycle;Max_cycle;Signal;HPM_P1;HPM_P2
2022/07/23 00:00:09;;;;;;;11.85;8.30;;;24.20;70.60;;;;;;5171059;28;20060;-73
2022/07/23 00:02:42;;;;;;;12.18;8.02;;;24.20;71.30;;;;;;5167926;28;20048;-71
2022/07/23 00:05:14;;;;;;;11.60;8.43;;;24.10;71.50;;;;;;5167013;28;20433;-71
2022/07/23 00:07:47;;;;;;;10.43;8.00;;;24.10;71.70;;;;;;5172158;28;20049;-71
2022/07/23 00:10:19;;;;;;;9.02;8.07;;;23.80;71.70;;;;;;5164501;28;20080;-71
2022/07/23 00:12:52;;;;;;;9.20;7.80;;;;;;;;;;5169655;28;20138;-71
2022/07/23 00:15:25;;;;;;;9.85;8.70;;;;;;;;;;5159319;28;20105;-71
2022/07/23 00:17:58;;;;;;;10.50;8.10;;;;;;;;;;5167702;28;20473;-71
2022/07/23 00:20:30;;;;;;;9.50;8.50;;;23.90;72.00;;;;;;5165987;28;20042;-70
2022/07/23 00:23:02;;;;;;;10.68;7.97;;;24.00;72.40;;;;;;5169837;28;20300;-72
2022/07/23 00:25:35;;;;;;;9.73;8.07;;;23.90;73.00;;;;;;5161397;28;20122;-72
2022/07/23 00:28:07;;;;;;;9.75;8.38;;;23.90;73.20;;;;;;5168608;28;20433;-71
2022/07/23 00:30:41;;;;;;;;;;;23.80;73.60;;;;;;5186469;28;21006;-71
2022/07/23 00:33:13;;;;;;;13.25;7.82;;;23.50;74.60;;;;;;5165990;28;19936;-72
2022/07/23 00:35:46;;;;;;;10.43;8.83;;;23.40;74.50;;;;;;5169921;28;20054;-71
2022/07/23 00:38:18;;;;;;;9.90;8.90;;;22.90;74.30;;;;;;5164565;28;20324;-71
2022/07/23 00:40:51;;;;;;;16.17;7.85;;;23.40;74.60;;;;;;5167380;28;20494;-71
2022/07/23 00:43:24;;;;;;;9.48;8.20;;;23.40;73.50;;;;;;5165468;28;20060;-71
2022/07/23 00:45:57;;;;;;;11.52;7.90;;;23.40;73.00;;;;;;5180176;28;20053;-72
2022/07/23 00:48:30;;;;;;;9.48;7.65;;;;;;;;;;5167153;28;20163;-72
2022/07/23 00:51:03;;;;;;;10.90;8.35;;;;;;;;;;5195123;28;20161;-71
2022/07/23 00:53:36;;;;;;;12.83;7.60;;;;;;;;;;5160939;28;20045;-71
2022/07/23 00:56:09;;;;;;;9.73;8.68;;;;;;;;;;5164282;28;21090;-72
2022/07/23 00:58:42;;;;;;;10.63;8.67;;;;;;;;;;5162429;28;20060;-72
2022/07/23 01:01:15;;;;;;;9.23;8.23;;;;;;;;;;5165457;28;20050;-71
2022/07/23 01:03:48;;;;;;;10.10;8.07;;;;;;;;;;5169503;28;20072;-71
2022/07/23 01:06:21;;;;;;;9.73;8.38;;;;;;;;;;5163177;28;26558;-71
2022/07/23 01:08:55;;;;;;;11.07;8.55;;;;;;;;;;5174646;28;20046;-71
2022/07/23 01:11:28;;;;;;;8.98;8.07;;;;;;;;;;5165876;28;20722;-71
2022/07/23 01:14:08;;;;;;;9.38;8.35;;;;;;;;;;5170276;28;20061;-71
2022/07/23 01:16:41;;;;;;;8.82;7.93;;;23.20;74.10;;;;;;5160878;28;20065;-71
2022/07/23 01:22:37;;;;;;;11.32;7.90;;;23.10;75.20;;;;;;5155967;28;19925;-71
2022/07/23 01:25:10;;;;;;;12.00;8.40;;;23.10;74.70;;;;;;5156738;28;21055;-71
2022/07/23 01:27:45;;;;;;;13.93;10.02;;;23.20;74.80;;;;;;5167050;28;20307;-70
2022/07/23 01:30:20;;;;;;;17.15;10.27;;;23.20;74.90;;;;;;5152047;28;20053;-71
2022/07/23 01:32:53;;;;;;;17.77;10.80;;;23.20;72.00;;;;;;5155847;28;20049;-72
2022/07/23 01:35:27;;;;;;;18.05;10.55;;;;;;;;;;5198972;28;20049;-71
2022/07/23 01:38:03;;;;;;;23.02;9.00;;;;;;;;;;5174347;28;20057;-72
2022/07/23 01:40:37;;;;;;;16.30;8.63;;;;;;;;;;5177606;28;20049;-72
2022/07/23 01:43:10;;;;;;;11.32;7.03;;;;;;;;;;5195750;28;20078;-71
2022/07/23 01:45:44;;;;;;;19.30;6.97;;;;;;;;;;5178742;28;20041;-70
2022/07/23 01:48:18;;;;;;;12.48;5.30;;;;;;;;;;5170704;28;20403;-71
2022/07/23 01:51:08;;;;;;;12.18;4.68;;;;;;;;;;5158416;28;20119;-72
2022/07/23 01:53:48;;;;;;;14.40;5.07;;;;;;;;;;5168173;28;20080;-72
2022/07/23 01:56:21;;;;;;;10.97;5.03;;;22.60;66.50;;;;;;5162111;28;20061;-72
2022/07/23 01:58:54;;;;;;;7.55;5.65;;;22.70;67.60;;;;;;5166608;28;20311;-71
2022/07/23 02:01:27;;;;;;;;;;;22.50;69.10;;;;;;5172487;28;20072;-72
2022/07/23 02:04:00;;;;;;;13.30;6.07;;;22.30;70.70;;;;;;5171513;28;20196;-72
2022/07/23 02:06:33;;;;;;;8.38;6.28;;;22.30;70.40;;;;;;5194475;28;20437;-71
2022/07/23 02:09:05;;;;;;;12.98;5.57;;;22.20;71.30;;;;;;5153228;28;21173;-72
2022/07/23 02:11:38;;;;;;;6.57;5.20;;;;;;;;;;5166702;28;20054;-71
2022/07/23 02:14:10;;;;;;;5.28;4.75;;;22.20;70.00;;;;;;5199695;28;20038;-71
2022/07/23 02:16:43;;;;;;;7.38;5.40;;;;;;;;;;5178973;28;20406;-72
2022/07/23 02:19:16;;;;;;;8.57;5.30;;;22.20;70.60;;;;;;5176761;28;20046;-71
2022/07/23 02:21:49;;;;;;;7.30;4.93;;;22.40;70.70;;;;;;5181748;28;20045;-71
2022/07/23 02:24:24;;;;;;;7.05;5.25;;;22.30;71.90;;;;;;5167319;28;20081;-71
2022/07/23 02:26:56;;;;;;;6.65;5.05;;;22.20;73.30;;;;;;5161152;28;20058;-71
2022/07/23 02:29:29;;;;;;;5.75;5.13;;;22.10;73.70;;;;;;5168348;28;20153;-71
2022/07/23 02:32:01;;;;;;;5.93;4.88;;;22.10;74.70;;;;;;5168622;28;20117;-71
2022/07/23 02:34:34;;;;;;;8.02;5.10;;;22.10;78.00;;;;;;5175521;28;20051;-71
2022/07/23 02:37:08;;;;;;;10.15;5.25;;;;;;;;;;5169829;28;20491;-70
2022/07/23 02:39:42;;;;;;;6.78;4.90;;;;;;;;;;5177914;28;20049;-72
2022/07/23 02:42:15;;;;;;;5.20;3.97;;;;;;;;;;5156149;28;20046;-71
2022/07/23 02:44:48;;;;;;;;;;;;;;;;;;5166399;28;20057;-72
2022/07/23 02:47:21;;;;;;;4.18;3.75;;;;;;;;;;5174834;28;19929;-72
2022/07/23 02:49:54;;;;;;;6.57;4.18;;;;;;;;;;5161479;28;20400;-73
2022/07/23 02:52:27;;;;;;;;;;;;;;;;;;5184537;28;20057;-72
2022/07/23 02:54:59;;;;;;;4.43;3.70;;;21.40;80.50;;;;;;5151271;28;19929;-72
2022/07/23 02:57:32;;;;;;;5.72;3.90;;;21.40;80.50;;;;;;5196845;28;20053;-71
2022/07/23 03:00:06;;;;;;;6.28;4.80;;;21.20;82.00;;;;;;5189016;28;20112;-71
2022/07/23 03:02:39;;;;;;;9.18;5.00;;;21.10;82.30;;;;;;5177841;28;20041;-70
2022/07/23 03:05:11;;;;;;;5.90;4.82;;;21.00;82.30;;;;;;5172565;28;20048;-71
2022/07/23 03:07:44;;;;;;;7.93;5.72;;;20.90;83.20;;;;;;5173162;28;20468;-71
2022/07/23 03:10:17;;;;;;;7.33;5.00;;;;;;;;;;5198618;28;20086;-71
2022/07/23 03:12:50;;;;;;;6.28;5.30;;;;;;;;;;5157587;28;20053;-71
2022/07/23 03:15:23;;;;;;;6.20;5.40;;;;;;;;;;5155081;28;20426;-71
2022/07/23 03:17:55;;;;;;;10.05;5.60;;;20.80;87.40;;;;;;5179568;28;20057;-70
2022/07/23 03:20:27;;;;;;;7.78;5.22;;;20.90;87.30;;;;;;5177378;28;20417;-70
2022/07/23 03:23:00;;;;;;;6.63;5.40;;;20.80;88.80;;;;;;5190321;28;20054;-70
2022/07/23 03:25:33;;;;;;;;;;;20.80;90.40;;;;;;5197864;28;20563;-71
2022/07/23 03:28:06;;;;;;;9.20;5.47;;;20.50;92.90;;;;;;5188518;28;19924;-69
2022/07/23 03:30:39;;;;;;;8.18;5.40;;;20.60;92.80;;;;;;5205148;28;20045;-70
2022/07/23 03:33:12;;;;;;;8.63;6.00;;;20.40;96.10;;;;;;5174446;28;20045;-73
2022/07/23 03:35:46;;;;;;;6.45;5.68;;;;;;;;;;5200677;28;20138;-70
2022/07/23 03:38:26;;;;;;;7.50;5.70;;;20.70;94.60;;;;;;5200953;28;20386;-71
2022/07/23 03:40:59;;;;;;;8.60;6.15;;;20.80;94.40;;;;;;5178958;28;20041;-71
2022/07/23 03:43:34;;;;;;;7.88;5.60;;;20.80;94.30;;;;;;5168229;28;20472;-72
2022/07/23 03:46:06;;;;;;;9.10;6.35;;;20.80;94.20;;;;;;5178111;28;20038;-70
2022/07/23 03:48:39;;;;;;;9.13;6.07;;;20.70;94.40;;;;;;5172008;28;20049;-70
2022/07/23 03:51:12;;;;;;;8.73;7.10;;;20.70;93.70;;;;;;5200456;28;20072;-71
2022/07/23 03:53:45;;;;;;;8.02;6.40;;;;;;;;;;5186382;28;20155;-71
2022/07/23 03:56:18;;;;;;;9.67;7.43;;;;;;;;;;5171429;28;20049;-71
2022/07/23 03:58:50;;;;;;;12.23;7.30;;;20.70;92.60;;;;;;5174754;28;20311;-71
2022/07/23 04:01:23;;;;;;;11.55;6.75;;;20.80;92.30;;;;;;5171040;28;20417;-73
2022/07/23 04:03:56;;;;;;;8.65;7.47;;;20.70;92.40;;;;;;5182905;28;20045;-70
2022/07/23 04:06:29;;;;;;;9.80;7.35;;;20.70;92.10;;;;;;5177923;28;20604;-72
2022/07/23 04:09:04;;;;;;;13.50;6.88;;;20.70;91.80;;;;;;5167303;28;20054;-70
2022/07/23 04:11:38;;;;;;;9.73;6.93;;;20.70;91.40;;;;;;5163246;28;20528;-71
2022/07/23 04:14:12;;;;;;;9.32;7.15;;;20.60;91.40;;;;;;5168850;28;20053;-71
2022/07/23 04:16:44;;;;;;;7.53;6.72;;;20.90;90.80;;;;;;5163084;28;20041;-71
2022/07/23 04:19:17;;;;;;;9.27;7.73;;;20.90;92.00;;;;;;5181878;28;20508;-70
2022/07/23 04:22:00;;;;;;;10.27;7.43;;;20.90;93.80;;;;;;5175302;28;20417;-71
2022/07/23 04:24:34;;;;;;;11.25;7.57;;;20.90;97.00;;;;;;5171924;28;20046;-71
2022/07/23 04:27:06;;;;;;;14.02;7.68;;;20.90;96.70;;;;;;5164540;28;20064;-71
2022/07/23 04:29:40;;;;;;;8.87;7.97;;;;;;;;;;5186912;28;20060;-70
2022/07/23 04:32:12;;;;;;;10.00;8.15;;;21.00;99.00;;;;;;5157998;28;20053;-70
2022/07/23 04:34:45;;;;;;;10.57;7.78;;;21.00;99.50;;;;;;5162231;28;20065;-70
2022/07/23 04:37:18;;;;;;;8.82;7.55;;;21.00;99.90;;;;;;5190487;28;20060;-70
2022/07/23 04:39:50;;;;;;;9.57;7.63;;;21.00;99.90;;;;;;5160112;28;20233;-71
2022/07/23 04:42:23;;;;;;;11.18;8.05;;;20.90;99.90;;;;;;5181410;28;20042;-71
2022/07/23 04:44:55;;;;;;;7.88;7.07;;;21.00;99.90;;;;;;5177185;28;20406;-70
2022/07/23 04:47:28;;;;;;;9.55;7.53;;;21.00;99.20;;;;;;5184149;28;20046;-70
2022/07/23 04:50:02;;;;;;;10.05;7.35;;;20.90;96.80;;;;;;5190109;28;20721;-70
2022/07/23 04:52:35;;;;;;;9.10;7.43;;;21.00;95.60;;;;;;5179150;28;20045;-70
2022/07/23 04:55:08;;;;;;;10.52;8.30;;;21.00;94.80;;;;;;5208297;28;20049;-70
2022/07/23 04:57:40;;;;;;;10.70;7.90;;;21.10;93.40;;;;;;5175816;28;20054;-70
2022/07/23 05:00:13;;;;;;;11.25;8.00;;;21.20;93.30;;;;;;5175172;28;20053;-70
2022/07/23 05:02:46;;;;;;;9.20;8.20;;;21.20;92.90;;;;;;5172159;28;20049;-70
2022/07/23 05:05:19;;;;;;;12.13;8.67;;;21.10;92.70;;;;;;5206605;28;20054;-70
2022/07/23 05:07:51;;;;;;;12.20;7.68;;;21.20;92.50;;;;;;5181309;28;20041;-70
2022/07/23 05:10:24;;;;;;;10.48;7.45;;;21.20;91.80;;;;;;5185921;28;20072;-68
2022/07/23 05:12:58;;;;;;;7.75;6.95;;;21.20;91.50;;;;;;5188853;28;20061;-70
2022/07/23 05:15:31;;;;;;;9.80;8.52;;;21.30;90.80;;;;;;5181295;28;20414;-70
2022/07/23 05:18:03;;;;;;;9.30;7.70;;;21.30;90.70;;;;;;5213406;28;20443;-70
2022/07/23 05:20:37;;;;;;;10.98;8.27;;;21.40;90.20;;;;;;5212914;28;20490;-70
2022/07/23 05:23:10;;;;;;;12.20;8.05;;;21.40;89.70;;;;;;5162134;28;20069;-70
2022/07/23 05:25:43;;;;;;;11.10;7.63;;;21.50;88.90;;;;;;5181046;28;20058;-70
2022/07/23 05:28:16;;;;;;;;;;;21.60;90.30;;;;;;5200244;28;20293;-70
2022/07/23 05:30:48;;;;;;;10.80;7.43;;;21.50;92.40;;;;;;5195316;28;19932;-70
2022/07/23 05:33:23;;;;;;;9.75;7.68;;;21.60;90.10;;;;;;5190223;28;20065;-70
2022/07/23 05:36:04;;;;;;;9.13;7.43;;;21.70;90.20;;;;;;5179878;28;20061;-70
2022/07/23 05:38:38;;;;;;;7.97;7.18;;;21.70;90.40;;;;;;5177192;28;20304;-70
2022/07/23 05:41:11;;;;;;;;;;;21.70;89.60;;;;;;5187555;28;20433;-70
2022/07/23 05:43:44;;;;;;;10.75;7.40;;;21.70;89.60;;;;;;5190234;28;20388;-70
2022/07/23 05:46:19;;;;;;;10.90;7.90;;;21.80;90.00;;;;;;5212112;28;20413;-70
2022/07/23 05:48:56;;;;;;;9.55;7.80;;;21.80;89.40;;;;;;5213052;28;20072;-70
2022/07/23 05:51:49;;;;;;;12.15;7.90;;;21.80;89.20;;;;;;5183384;28;20065;-70
2022/07/23 05:54:28;;;;;;;8.90;7.18;;;21.90;90.20;;;;;;5197553;28;20676;-70
2022/07/23 05:57:00;;;;;;;9.48;7.72;;;21.90;89.00;;;;;;5181373;28;20619;-70
2022/07/23 05:59:33;;;;;;;9.80;8.30;;;22.00;87.70;;;;;;5181622;28;20041;-70
2022/07/23 06:02:05;;;;;;;13.70;7.55;;;22.00;90.50;;;;;;5161609;28;20347;-70
2022/07/23 06:04:39;;;;;;;11.77;7.75;;;22.00;88.10;;;;;;5172620;28;20409;-70
2022/07/23 06:07:25;;;;;;;9.50;8.10;;;22.00;89.30;;;;;;5176527;28;20508;-70
2022/07/23 06:09:58;;;;;;;12.98;9.32;;;22.10;90.10;;;;;;5187406;28;20045;-70
2022/07/23 06:12:31;;;;;;;11.10;8.65;;;22.00;91.30;;;;;;5193985;28;20057;-70
2022/07/23 06:15:04;;;;;;;9.93;8.20;;;22.00;91.20;;;;;;5177881;28;20057;-70
2022/07/23 06:17:42;;;;;;;12.15;8.60;;;21.90;91.50;;;;;;5186838;28;20547;-70
2022/07/23 06:20:15;;;;;;;10.90;8.50;;;21.90;90.30;;;;;;5171168;28;20049;-70
2022/07/23 06:22:47;;;;;;;10.37;9.27;;;22.00;90.50;;;;;;5159241;28;20045;-70
2022/07/23 06:25:20;;;;;;;10.15;8.40;;;22.00;90.70;;;;;;5196185;28;20072;-70
2022/07/23 06:27:53;;;;;;;11.65;9.15;;;22.00;90.70;;;;;;5189659;28;20041;-70
2022/07/23 06:30:25;;;;;;;16.55;10.52;;;22.00;92.70;;;;;;5181751;28;20042;-71
2022/07/23 06:32:59;;;;;;;;;;;22.00;94.20;;;;;;5180373;28;20045;-71
2022/07/23 06:35:31;;;;;;;12.13;8.85;;;21.80;95.30;;;;;;5181962;28;19936;-70
2022/07/23 06:38:03;;;;;;;11.30;8.88;;;21.90;94.80;;;;;;5182115;28;20050;-70
2022/07/23 06:40:36;;;;;;;13.20;9.43;;;21.80;96.30;;;;;;5178844;28;20041;-71
2022/07/23 06:43:09;;;;;;;10.50;9.07;;;21.70;95.80;;;;;;5182242;28;20831;-70
2022/07/23 06:45:42;;;;;;;11.68;9.40;;;21.70;95.20;;;;;;5179624;28;20433;-70
2022/07/23 06:48:16;;;;;;;13.25;9.18;;;21.70;95.00;;;;;;5190377;28;20045;-71
2022/07/23 06:50:49;;;;;;;11.82;9.13;;;21.60;94.70;;;;;;5186458;28;20060;-71
2022/07/23 06:53:21;;;;;;;11.30;9.15;;;21.60;94.30;;;;;;5182141;28;20056;-71
2022/07/23 06:55:54;;;;;;;10.93;9.05;;;21.60;94.10;;;;;;5186754;28;20048;-71
2022/07/23 06:58:26;;;;;;;10.32;9.00;;;21.70;93.70;;;;;;5187272;28;20037;-70
2022/07/23 07:00:59;;;;;;;15.32;8.85;;;21.70;93.10;;;;;;5181809;28;20054;-70
2022/07/23 07:03:31;;;;;;;9.32;7.90;;;21.70;92.60;;;;;;5181817;28;20064;-70
2022/07/23 07:06:04;;;;;;;11.23;8.65;;;21.70;92.20;;;;;;5183996;28;20057;-70
2022/07/23 07:08:37;;;;;;;12.30;7.87;;;;;;;;;;5180286;28;20045;-70
2022/07/23 07:11:10;;;;;;;9.60;7.67;;;21.80;91.80;;;;;;5186190;28;20065;-70
2022/07/23 07:13:42;;;;;;;9.25;7.93;;;21.90;91.90;;;;;;5189614;28;20045;-71
2022/07/23 07:16:15;;;;;;;10.13;7.88;;;22.00;92.10;;;;;;5183767;28;20064;-71
2022/07/23 07:18:47;;;;;;;10.35;8.23;;;22.10;91.60;;;;;;5181743;28;20525;-70
2022/07/23 07:21:20;;;;;;;9.57;7.90;;;22.10;91.30;;;;;;5184678;28;20060;-70
2022/07/23 07:23:53;;;;;;;10.97;7.43;;;22.20;91.50;;;;;;5182617;28;20049;-70
2022/07/23 07:26:25;;;;;;;9.43;8.38;;;22.20;91.50;;;;;;5183529;28;20044;-70
2022/07/23 07:28:58;;;;;;;10.07;8.27;;;22.30;91.50;;;;;;5180718;28;20050;-70
2022/07/23 07:31:31;;;;;;;11.57;9.00;;;22.40;91.80;;;;;;5193277;28;20022;-71
2022/07/23 07:34:04;;;;;;;9.77;8.77;;;22.50;91.50;;;;;;5181274;28;20057;-70
2022/07/23 07:36:38;;;;;;;11.90;8.18;;;22.50;91.30;;;;;;5192484;28;20053;-70
2022/07/23 07:39:11;;;;;;;14.52;8.35;;;22.70;91.50;;;;;;5176132;28;20048;-70
2022/07/23 07:41:43;;;;;;;9.77;8.20;;;22.80;91.50;;;;;;5191639;28;20037;-70
2022/07/23 07:44:16;;;;;;;11.73;8.57;;;22.80;91.10;;;;;;5182014;28;20064;-70
2022/07/23 07:46:49;;;;;;;9.43;8.52;;;22.80;90.80;;;;;;5208116;28;20442;-70
2022/07/23 07:49:22;;;;;;;10.25;9.07;;;22.70;90.20;;;;;;5181195;28;20494;-70
2022/07/23 07:51:57;;;;;;;11.93;9.43;;;22.60;90.40;;;;;;5188230;28;20045;-71
2022/07/23 07:54:30;;;;;;;12.07;9.20;;;22.40;91.70;;;;;;5179229;28;20081;-70
2022/07/23 07:57:02;;;;;;;10.10;8.75;;;22.40;92.60;;;;;;5170070;28;20052;-71
2022/07/23 07:59:39;;;;;;;11.18;9.15;;;22.30;92.70;;;;;;5185427;28;20053;-70
2022/07/23 08:02:12;;;;;;;9.52;8.57;;;22.20;93.60;;;;;;5172684;28;20046;-70
2022/07/23 08:04:44;;;;;;;10.30;8.85;;;22.10;94.30;;;;;;5177168;28;20049;-70
2022/07/23 08:07:17;;;;;;;12.85;9.57;;;22.10;95.30;;;;;;5171470;28;20034;-70
2022/07/23 08:09:50;;;;;;;13.90;9.97;;;22.10;95.30;;;;;;5171809;28;20041;-70
2022/07/23 08:12:22;;;;;;;11.85;9.65;;;22.10;95.70;;;;;;5174800;28;20064;-70
2022/07/23 08:14:54;;;;;;;13.68;10.10;;;22.10;96.40;;;;;;5176561;28;20045;-71
2022/07/23 08:17:27;;;;;;;10.48;9.30;;;22.10;95.50;;;;;;5175240;28;20627;-70
2022/07/23 08:19:59;;;;;;;13.05;9.18;;;22.10;96.00;;;;;;5167955;28;20053;-71
2022/07/23 08:22:47;;;;;;;13.38;9.25;;;22.20;95.20;;;;;;5172908;28;20098;-70
2022/07/23 08:25:23;;;;;;;12.30;9.32;;;22.20;95.40;;;;;;5173979;28;20038;-70
2022/07/23 08:27:56;;;;;;;9.73;8.60;;;22.30;94.70;;;;;;5178407;28;20061;-70
2022/07/23 08:30:29;;;;;;;10.68;9.57;;;22.40;94.10;;;;;;5167769;28;20053;-71
2022/07/23 08:33:06;;;;;;;9.88;8.88;;;22.50;94.00;;;;;;5173588;28;20037;-70
2022/07/23 08:35:47;;;;;;;10.35;9.20;;;22.50;93.50;;;;;;5164654;28;20412;-70
2022/07/23 08:38:21;;;;;;;11.20;9.45;;;22.60;93.00;;;;;;5173518;28;20050;-70
2022/07/23 08:40:57;;;;;;;12.38;9.10;;;22.70;92.70;;;;;;5180751;28;20234;-70
2022/07/23 08:43:32;;;;;;;10.23;8.55;;;22.60;92.30;;;;;;5195314;28;20049;-70
2022/07/23 08:46:05;;;;;;;11.25;9.00;;;22.60;91.90;;;;;;5192080;28;20057;-70
2022/07/23 08:48:37;;;;;;;12.03;9.17;;;22.70;91.90;;;;;;5179211;28;20050;-70
2022/07/23 08:51:11;;;;;;;10.10;8.85;;;22.80;91.80;;;;;;5177339;28;20297;-69
2022/07/23 08:53:45;;;;;;;11.02;8.68;;;22.90;91.50;;;;;;5174542;28;20533;-69
2022/07/23 08:56:17;;;;;;;12.13;8.40;;;23.00;91.00;;;;;;5206575;28;22643;-69
2022/07/23 08:58:50;;;;;;;12.90;8.48;;;23.10;90.60;;;;;;5174796;28;20061;-69
2022/07/23 09:01:22;;;;;;;10.15;8.15;;;23.10;90.30;;;;;;5173818;28;20034;-69
2022/07/23 09:03:55;;;;;;;10.73;8.10;;;23.00;90.00;;;;;;5177822;28;20547;-70
2022/07/23 09:06:27;;;;;;;10.97;8.57;;;23.00;89.10;;;;;;5179599;28;20433;-70
2022/07/23 09:09:17;;;;;;;11.10;8.07;;;23.00;88.90;;;;;;5174363;28;20555;-70
2022/07/23 09:12:07;;;;;;;10.13;8.43;;;22.90;89.10;;;;;;5179017;28;20049;-70
2022/07/23 09:14:46;;;;;;;9.27;8.07;;;23.00;88.60;;;;;;5176978;28;20057;-70
2022/07/23 09:17:20;;;;;;;10.68;8.13;;;22.90;88.30;;;;;;5202198;28;20072;-70
2022/07/23 09:20:06;;;;;;;;;;;23.00;87.80;;;;;;5182186;28;20072;-70
2022/07/23 09:22:43;;;;;;;11.05;8.50;;;23.00;86.50;;;;;;5189598;22;19925;-69
2022/07/23 09:25:18;;;;;;;9.88;7.63;;;23.00;86.60;;;;;;5157757;28;20405;-69
2022/07/23 09:27:57;;;;;;;8.80;7.90;;;23.10;85.50;;;;;;5181252;28;20520;-70
2022/07/23 09:30:31;;;;;;;9.45;7.95;;;23.20;84.50;;;;;;5178340;28;20060;-69
2022/07/23 09:33:06;;;;;;;10.93;8.02;;;23.20;84.20;;;;;;5182176;28;20076;-70
2022/07/23 09:35:45;;;;;;;8.55;7.65;;;23.30;84.30;;;;;;5181204;28;20513;-70
2022/07/23 09:38:20;;;;;;;11.95;8.02;;;23.50;83.20;;;;;;5181538;28;20064;-70
2022/07/23 09:41:11;;;;;;;8.65;7.75;;;23.70;83.50;;;;;;5184629;28;20117;-70
2022/07/23 09:43:44;;;;;;;8.65;7.75;;;23.90;83.40;;;;;;5167777;28;20057;-70
2022/07/23 09:46:27;;;;;;;14.87;8.10;;;24.10;83.30;;;;;;5175168;28;20432;-70
2022/07/23 09:49:11;;;;;;;9.93;7.25;;;24.40;80.40;;;;;;5162521;28;20619;-71
2022/07/23 09:51:46;;;;;;;10.65;7.95;;;24.60;80.80;;;;;;5179609;28;20452;-70
2022/07/23 09:54:25;;;;;;;10.55;8.00;;;24.70;80.10;;;;;;5180995;28;20441;-70
2022/07/23 09:57:04;;;;;;;9.93;7.50;;;24.90;78.20;;;;;;5146707;28;20053;-70
2022/07/23 09:59:38;;;;;;;9.38;7.05;;;24.90;77.60;;;;;;5163455;28;20045;-69
2022/07/23 10:02:12;;;;;;;9.52;7.28;;;25.00;77.10;;;;;;5188775;28;20520;-70
2022/07/23 10:05:04;;;;;;;9.45;7.25;;;25.10;76.90;;;;;;5191683;28;20222;-69
2022/07/23 10:08:04;;;;;;;8.73;7.75;;;25.40;76.10;;;;;;5175237;28;20049;-70
2022/07/23 10:10:55;;;;;;;11.98;7.57;;;25.60;74.50;;;;;;5190820;28;20045;-69
2022/07/23 10:13:58;;;;;;;10.35;7.50;;;25.80;73.00;;;;;;5165340;28;20041;-70
2022/07/23 10:16:50;;;;;;;8.50;7.03;;;26.00;72.60;;;;;;5172967;28;20045;-70
2022/07/23 10:19:24;;;;;;;9.00;7.50;;;26.30;73.00;;;;;;5189245;28;20044;-69
2022/07/23 10:22:06;;;;;;;10.90;7.15;;;26.50;70.70;;;;;;5188705;28;20242;-70
2022/07/23 10:25:00;;;;;;;9.27;6.78;;;26.80;70.20;;;;;;5188990;28;20037;-69
2022/07/23 10:28:06;;;;;;;7.93;6.78;;;26.90;65.30;;;;;;5188386;28;20129;-70
2022/07/23 10:30:44;;;;;;;9.88;7.57;;;26.80;64.10;;;;;;5184547;28;20053;-70
2022/07/23 10:33:59;;;;;;;7.80;6.38;;;26.80;66.10;;;;;;5190138;28;20053;-69
2022/07/23 10:36:42;;;;;;;7.78;6.22;;;27.00;64.90;;;;;;5189130;28;20080;-69
2022/07/23 10:39:35;;;;;;;7.20;6.40;;;26.90;64.10;;;;;;5190174;28;20057;-70
2022/07/23 10:42:10;;;;;;;10.27;6.32;;;27.00;64.90;;;;;;5166382;28;20053;-68
2022/07/23 10:44:47;;;;;;;11.82;7.15;;;27.00;64.30;;;;;;5173480;28;20429;-70
2022/07/23 10:47:42;;;;;;;7.85;6.25;;;27.00;63.60;;;;;;5170816;28;20062;-70
2022/07/23 10:50:30;;;;;;;8.32;6.53;;;27.10;63.60;;;;;;5189119;28;20053;-70
2022/07/23 10:53:08;;;;;;;9.40;6.00;;;27.00;64.50;;;;;;5188462;28;20049;-70
2022/07/23 10:55:43;;;;;;;6.82;5.82;;;26.90;65.00;;;;;;5172218;28;20049;-67
2022/07/23 10:58:22;;;;;;;12.27;6.38;;;26.90;64.90;;;;;;5187182;28;20041;-69
2022/07/23 11:00:54;;;;;;;8.68;6.45;;;26.80;63.90;;;;;;5190062;28;20062;-70
2022/07/23 11:03:32;;;;;;;9.70;6.32;;;26.70;64.20;;;;;;5190230;28;20506;-69
2022/07/23 11:06:05;;;;;;;6.57;5.82;;;26.60;64.20;;;;;;5174144;28;20051;-69
2022/07/23 11:08:37;;;;;;;8.07;5.97;;;26.60;64.90;;;;;;5184759;28;20638;-69
2022/07/23 11:11:11;;;;;;;9.40;6.30;;;26.60;64.60;;;;;;5189291;28;20049;-68
2022/07/23 11:13:47;;;;;;;;;;;26.60;63.70;;;;;;5188226;28;20060;-70
2022/07/23 11:16:21;;;;;;;8.07;6.72;;;26.50;63.90;;;;;;5168596;28;19929;-70
2022/07/23 11:18:57;;;;;;;9.50;6.20;;;26.60;65.10;;;;;;5191174;28;20052;-69
2022/07/23 11:21:30;;;;;;;9.65;6.55;;;26.50;65.20;;;;;;5187188;28;20708;-70
2022/07/23 11:24:09;;;;;;;8.27;6.85;;;26.50;65.30;;;;;;5180971;28;20045;-69
2022/07/23 11:26:55;;;;;;;7.65;6.25;;;26.40;65.10;;;;;;5170271;28;20517;-68
2022/07/23 11:29:27;;;;;;;7.90;6.72;;;26.40;64.90;;;;;;5170497;28;20065;-70
2022/07/23 11:32:21;;;;;;;9.82;6.90;;;26.30;64.80;;;;;;5187039;28;20427;-69
2022/07/23 11:34:54;;;;;;;9.15;6.57;;;26.20;64.50;;;;;;5165001;28;20512;-70
2022/07/23 11:37:33;;;;;;;7.13;6.43;;;26.10;64.80;;;;;;5187416;28;20049;-68
2022/07/23 11:40:12;;;;;;;8.32;7.53;;;26.00;65.40;;;;;;5190247;28;20157;-69
2022/07/23 11:43:03;;;;;;;10.95;6.35;;;26.00;65.20;;;;;;5190434;28;20440;-67
2022/07/23 11:45:37;;;;;;;9.63;7.40;;;25.90;65.40;;;;;;5186108;28;20364;-68
2022/07/23 11:48:21;;;;;;;8.45;7.03;;;25.80;65.80;;;;;;5188984;28;20045;-69
2022/07/23 11:50:56;;;;;;;10.63;7.55;;;25.60;65.80;;;;;;5190200;28;20463;-67
2022/07/23 11:53:32;;;;;;;8.50;6.95;;;25.60;66.30;;;;;;5187352;28;20060;-69
2022/07/23 11:56:10;;;;;;;9.93;7.60;;;25.60;67.50;;;;;;5187158;28;20064;-69
2022/07/23 11:58:57;;;;;;;9.52;7.18;;;25.60;66.70;;;;;;5179639;28;20057;-68
2022/07/23 12:01:31;;;;;;;8.05;7.22;;;25.70;66.60;;;;;;5168221;28;20400;-69
2022/07/23 12:04:06;;;;;;;12.48;7.53;;;25.70;66.90;;;;;;5183151;28;20068;-69
2022/07/23 12:06:40;;;;;;;9.90;7.00;;;25.70;67.10;;;;;;5184649;28;20455;-69
2022/07/23 12:09:13;;;;;;;10.88;7.20;;;25.70;67.00;;;;;;5184234;28;20049;-70
2022/07/23 12:11:59;;;;;;;13.83;7.70;;;25.60;68.10;;;;;;5188447;28;20056;-69
2022/07/23 12:14:31;;;;;;;9.85;7.18;;;25.70;67.60;;;;;;5189182;28;21176;-70
2022/07/23 12:17:10;;;;;;;12.07;7.85;;;25.70;68.60;;;;;;5187376;28;20049;-69
2022/07/23 12:19:43;;;;;;;11.77;7.65;;;25.60;67.40;;;;;;5187785;28;20053;-69
2022/07/23 12:22:18;;;;;;;8.30;7.32;;;25.50;67.80;;;;;;5161956;28;20046;-69
2022/07/23 12:25:02;;;;;;;8.18;7.05;;;25.40;68.20;;;;;;5192846;28;20402;-68
2022/07/23 12:27:35;;;;;;;8.32;6.90;;;25.30;68.10;;;;;;5188327;28;20045;-69
2022/07/23 12:30:17;;;;;;;11.63;8.18;;;25.30;68.80;;;;;;5183322;28;20053;-69
2022/07/23 12:32:52;;;;;;;10.20;7.40;;;25.30;68.70;;;;;;5182861;28;20050;-69
2022/07/23 12:35:35;;;;;;;10.40;7.28;;;25.30;68.70;;;;;;5164368;28;20056;-69
2022/07/23 12:38:12;;;;;;;13.43;8.77;;;25.20;68.90;;;;;;5179902;28;20053;-68
2022/07/23 12:40:52;;;;;;;12.77;8.15;;;25.20;69.30;;;;;;5151955;28;20304;-69
2022/07/23 12:43:27;;;;;;;10.77;7.50;;;25.10;69.30;;;;;;5174176;28;20049;-69
2022/07/23 12:46:08;;;;;;;9.32;7.20;;;25.10;69.40;;;;;;5156325;28;20876;-69
2022/07/23 12:48:49;;;;;;;10.05;7.55;;;25.10;69.50;;;;;;5174545;28;20045;-69
2022/07/23 12:51:28;;;;;;;9.80;7.20;;;25.20;69.50;;;;;;5181524;28;20061;-69
2022/07/23 12:54:08;;;;;;;10.88;7.32;;;25.10;68.50;;;;;;5162866;28;20057;-69
2022/07/23 12:56:45;;;;;;;9.05;7.70;;;25.10;69.30;;;;;;5177757;28;20080;-68
2022/07/23 12:59:20;;;;;;;10.40;7.10;;;25.10;69.10;;;;;;5184129;28;20417;-69
2022/07/23 13:01:59;;;;;;;9.57;7.63;;;25.10;69.50;;;;;;5179137;28;20072;-69
2022/07/23 13:04:33;;;;;;;11.20;7.68;;;25.10;69.40;;;;;;5183169;28;20095;-70
2022/07/23 13:07:06;;;;;;;11.68;7.60;;;25.00;69.10;;;;;;5179182;28;20101;-69
2022/07/23 13:09:40;;;;;;;10.10;7.47;;;25.10;69.20;;;;;;5181066;28;20041;-69
2022/07/23 13:12:14;;;;;;;8.52;7.10;;;25.10;69.30;;;;;;5162366;28;20129;-68
2022/07/23 13:14:46;;;;;;;8.45;7.60;;;25.30;69.20;;;;;;5180926;28;20056;-69
2022/07/23 13:17:19;;;;;;;8.95;7.30;;;25.40;68.70;;;;;;5176455;28;20334;-68
2022/07/23 13:19:52;;;;;;;8.75;7.85;;;25.60;69.20;;;;;;5188745;28;20045;-69
2022/07/23 13:22:24;;;;;;;9.13;7.97;;;25.80;68.60;;;;;;5184537;28;20540;-69
2022/07/23 13:24:57;;;;;;;9.75;7.00;;;26.00;68.60;;;;;;5178890;28;20056;-69
2022/07/23 13:27:29;;;;;;;9.63;6.87;;;26.60;67.50;;;;;;5176424;28;20053;-69
2022/07/23 13:30:02;;;;;;;11.20;7.73;;;26.80;66.00;;;;;;5186821;28;20515;-68
2022/07/23 13:32:35;;;;;;;10.68;7.50;;;26.80;66.80;;;;;;5164774;28;20274;-69
2022/07/23 13:35:08;;;;;;;9.32;7.30;;;26.60;65.80;;;;;;5187778;28;20057;-68
2022/07/23 13:37:42;;;;;;;9.82;7.47;;;26.30;66.30;;;;;;5181081;28;20045;-68
2022/07/23 13:40:17;;;;;;;7.57;6.75;;;26.10;67.40;;;;;;5181154;28;20495;-69
2022/07/23 13:42:50;;;;;;;10.15;7.63;;;26.00;67.20;;;;;;5162024;28;20049;-69